sensor_id;sensor_type;location;lat;lon;timestamp;temperature;humidity
8422;DHT22;4248;48.196;10.924;2023-04-06T00:01:53;-1.30;31.10
8422;DHT22;4248;48.196;10.924;2023-04-06T00:04:19;-1.30;31.10
8422;DHT22;4248;48.196;10.924;2023-04-06T00:06:44;-1.30;31.10
8422;DHT22;4248;48.196;10.924;2023-04-06T00:09:10;-1.30;31.30
8422;DHT22;4248;48.196;10.924;2023-04-06T00:11:36;-1.30;31.10
8422;DHT22;4248;48.196;10.924;2023-04-06T00:14:01;-1.30;31.10
8422;DHT22;4248;48.196;10.924;2023-04-06T00:16:27;-1.30;31.10
8422;DHT22;4248;48.196;10.924;2023-04-06T00:18:53;-1.30;31.00
8422;DHT22;4248;48.196;10.924;2023-04-06T00:21:18;-1.30;31.10
8422;DHT22;4248;48.196;10.924;2023-04-06T00:23:44;-1.30;31.10
8422;DHT22;4248;48.196;10.924;2023-04-06T00:26:10;-1.20;31.10
8422;DHT22;4248;48.196;10.924;2023-04-06T00:28:36;-1.30;31.10
8422;DHT22;4248;48.196;10.924;2023-04-06T00:31:02;-1.30;31.20
8422;DHT22;4248;48.196;10.924;2023-04-06T00:33:28;-1.30;31.30
8422;DHT22;4248;48.196;10.924;2023-04-06T00:35:53;-1.30;31.40
8422;DHT22;4248;48.196;10.924;2023-04-06T00:38:19;-1.30;31.60
8422;DHT22;4248;48.196;10.924;2023-04-06T00:40:45;-1.40;31.70
8422;DHT22;4248;48.196;10.924;2023-04-06T00:43:11;-1.50;32.00
8422;DHT22;4248;48.196;10.924;2023-04-06T00:45:41;-1.60;32.20
8422;DHT22;4248;48.196;10.924;2023-04-06T00:48:08;-1.70;32.30
8422;DHT22;4248;48.196;10.924;2023-04-06T00:50:34;-1.60;32.50
8422;DHT22;4248;48.196;10.924;2023-04-06T00:53:00;-1.70;32.40
8422;DHT22;4248;48.196;10.924;2023-04-06T00:55:27;-1.70;32.30
8422;DHT22;4248;48.196;10.924;2023-04-06T00:57:53;-1.60;32.40
8422;DHT22;4248;48.196;10.924;2023-04-06T01:00:19;-1.60;32.30
8422;DHT22;4248;48.196;10.924;2023-04-06T01:02:44;-1.60;32.20
8422;DHT22;4248;48.196;10.924;2023-04-06T01:05:11;-1.70;32.30
8422;DHT22;4248;48.196;10.924;2023-04-06T01:07:37;-1.70;32.20
8422;DHT22;4248;48.196;10.924;2023-04-06T01:10:03;-1.60;32.50
8422;DHT22;4248;48.196;10.924;2023-04-06T01:12:29;-1.60;32.50
8422;DHT22;4248;48.196;10.924;2023-04-06T01:14:55;-1.70;32.60
8422;DHT22;4248;48.196;10.924;2023-04-06T01:17:21;-1.70;32.60
8422;DHT22;4248;48.196;10.924;2023-04-06T01:19:47;-1.70;32.70
8422;DHT22;4248;48.196;10.924;2023-04-06T01:22:18;-1.70;32.70
8422;DHT22;4248;48.196;10.924;2023-04-06T01:24:43;-1.70;32.70
8422;DHT22;4248;48.196;10.924;2023-04-06T01:27:09;-1.70;32.70
8422;DHT22;4248;48.196;10.924;2023-04-06T01:29:35;-1.50;32.90
8422;DHT22;4248;48.196;10.924;2023-04-06T01:32:01;-1.70;32.70
8422;DHT22;4248;48.196;10.924;2023-04-06T01:34:26;-1.70;32.70
8422;DHT22;4248;48.196;10.924;2023-04-06T01:36:52;-1.70;32.80
8422;DHT22;4248;48.196;10.924;2023-04-06T01:39:18;-1.60;32.90
8422;DHT22;4248;48.196;10.924;2023-04-06T01:41:44;-1.70;33.10
8422;DHT22;4248;48.196;10.924;2023-04-06T01:44:12;-1.80;33.10
8422;DHT22;4248;48.196;10.924;2023-04-06T01:46:38;-1.80;33.20
8422;DHT22;4248;48.196;10.924;2023-04-06T01:49:03;-1.80;33.30
8422;DHT22;4248;48.196;10.924;2023-04-06T01:51:30;-1.80;33.20
8422;DHT22;4248;48.196;10.924;2023-04-06T01:53:56;-1.70;33.20
8422;DHT22;4248;48.196;10.924;2023-04-06T01:56:21;-1.70;33.20
8422;DHT22;4248;48.196;10.924;2023-04-06T01:58:47;-1.40;33.50
8422;DHT22;4248;48.196;10.924;2023-04-06T02:01:13;-1.60;33.20
8422;DHT22;4248;48.196;10.924;2023-04-06T02:03:38;-1.60;33.30
8422;DHT22;4248;48.196;10.924;2023-04-06T02:06:04;-1.60;33.30
8422;DHT22;4248;48.196;10.924;2023-04-06T02:08:30;-1.60;33.30
8422;DHT22;4248;48.196;10.924;2023-04-06T02:10:55;-1.70;33.50
8422;DHT22;4248;48.196;10.924;2023-04-06T02:13:21;-1.80;33.60
8422;DHT22;4248;48.196;10.924;2023-04-06T02:15:47;-1.90;33.70
8422;DHT22;4248;48.196;10.924;2023-04-06T02:18:12;-1.90;33.90
8422;DHT22;4248;48.196;10.924;2023-04-06T02:20:38;-2.00;34.10
8422;DHT22;4248;48.196;10.924;2023-04-06T02:23:03;-2.00;34.30
8422;DHT22;4248;48.196;10.924;2023-04-06T02:25:29;-2.10;34.20
8422;DHT22;4248;48.196;10.924;2023-04-06T02:27:55;-1.80;34.60
8422;DHT22;4248;48.196;10.924;2023-04-06T02:30:20;-2.10;34.40
8422;DHT22;4248;48.196;10.924;2023-04-06T02:32:46;-2.10;34.50
8422;DHT22;4248;48.196;10.924;2023-04-06T02:35:11;-2.10;34.40
8422;DHT22;4248;48.196;10.924;2023-04-06T02:37:37;-2.10;34.40
8422;DHT22;4248;48.196;10.924;2023-04-06T02:40:03;-2.10;34.20
8422;DHT22;4248;48.196;10.924;2023-04-06T02:42:29;-2.10;34.20
8422;DHT22;4248;48.196;10.924;2023-04-06T02:44:55;-2.00;34.20
8422;DHT22;4248;48.196;10.924;2023-04-06T02:47:20;-2.00;34.30
8422;DHT22;4248;48.196;10.924;2023-04-06T02:49:46;-2.00;34.30
8422;DHT22;4248;48.196;10.924;2023-04-06T02:52:12;-2.00;34.20
8422;DHT22;4248;48.196;10.924;2023-04-06T02:54:37;-2.00;34.20
8422;DHT22;4248;48.196;10.924;2023-04-06T02:57:03;-1.90;34.10
8422;DHT22;4248;48.196;10.924;2023-04-06T02:59:29;-1.90;34.00
8422;DHT22;4248;48.196;10.924;2023-04-06T03:01:55;-1.90;34.00
8422;DHT22;4248;48.196;10.924;2023-04-06T03:04:20;-1.90;34.00
8422;DHT22;4248;48.196;10.924;2023-04-06T03:06:48;-2.00;34.10
8422;DHT22;4248;48.196;10.924;2023-04-06T03:09:13;-2.00;34.20
8422;DHT22;4248;48.196;10.924;2023-04-06T03:11:39;-1.90;34.20
8422;DHT22;4248;48.196;10.924;2023-04-06T03:14:05;-1.90;34.40
8422;DHT22;4248;48.196;10.924;2023-04-06T03:16:30;-2.00;34.30
8422;DHT22;4248;48.196;10.924;2023-04-06T03:18:56;-1.90;34.50
8422;DHT22;4248;48.196;10.924;2023-04-06T03:21:22;-2.00;34.50
8422;DHT22;4248;48.196;10.924;2023-04-06T03:23:47;-2.00;34.40
8422;DHT22;4248;48.196;10.924;2023-04-06T03:26:16;-2.00;34.50
8422;DHT22;4248;48.196;10.924;2023-04-06T03:28:42;-2.00;34.70
8422;DHT22;4248;48.196;10.924;2023-04-06T03:31:07;-1.90;34.60
8422;DHT22;4248;48.196;10.924;2023-04-06T03:33:33;-2.00;34.60
8422;DHT22;4248;48.196;10.924;2023-04-06T03:35:58;-2.00;34.70
8422;DHT22;4248;48.196;10.924;2023-04-06T03:38:24;-2.00;34.80
8422;DHT22;4248;48.196;10.924;2023-04-06T03:40:50;-2.00;34.80
8422;DHT22;4248;48.196;10.924;2023-04-06T03:43:15;-2.00;34.90
8422;DHT22;4248;48.196;10.924;2023-04-06T03:45:41;-2.10;34.90
8422;DHT22;4248;48.196;10.924;2023-04-06T03:48:06;-2.10;35.10
8422;DHT22;4248;48.196;10.924;2023-04-06T03:50:32;-2.20;35.00
8422;DHT22;4248;48.196;10.924;2023-04-06T03:52:58;-2.20;35.10
8422;DHT22;4248;48.196;10.924;2023-04-06T03:55:23;-2.20;35.10
8422;DHT22;4248;48.196;10.924;2023-04-06T03:57:49;-2.20;35.20
8422;DHT22;4248;48.196;10.924;2023-04-06T04:00:15;-2.20;35.10
8422;DHT22;4248;48.196;10.924;2023-04-06T04:02:41;-2.10;35.10
8422;DHT22;4248;48.196;10.924;2023-04-06T04:05:07;-2.10;35.10
8422;DHT22;4248;48.196;10.924;2023-04-06T04:07:32;-2.10;35.00
8422;DHT22;4248;48.196;10.924;2023-04-06T04:09:58;-2.10;35.20
8422;DHT22;4248;48.196;10.924;2023-04-06T04:12:23;-2.10;35.10
8422;DHT22;4248;48.196;10.924;2023-04-06T04:14:49;-2.10;35.30
8422;DHT22;4248;48.196;10.924;2023-04-06T04:17:15;-2.20;35.20
8422;DHT22;4248;48.196;10.924;2023-04-06T04:19:41;-2.20;35.40
8422;DHT22;4248;48.196;10.924;2023-04-06T04:22:06;-2.20;35.50
8422;DHT22;4248;48.196;10.924;2023-04-06T04:24:32;-2.20;35.80
8422;DHT22;4248;48.196;10.924;2023-04-06T04:26:59;-2.40;35.80
8422;DHT22;4248;48.196;10.924;2023-04-06T04:29:26;-2.30;35.70
8422;DHT22;4248;48.196;10.924;2023-04-06T04:31:51;-2.30;35.60
8422;DHT22;4248;48.196;10.924;2023-04-06T04:34:18;-2.30;35.50
8422;DHT22;4248;48.196;10.924;2023-04-06T04:36:46;-2.20;35.70
8422;DHT22;4248;48.196;10.924;2023-04-06T04:39:11;-2.20;35.50
8422;DHT22;4248;48.196;10.924;2023-04-06T04:41:37;-2.20;35.50
8422;DHT22;4248;48.196;10.924;2023-04-06T04:44:02;-2.10;35.50
8422;DHT22;4248;48.196;10.924;2023-04-06T04:46:28;-2.10;35.40
8422;DHT22;4248;48.196;10.924;2023-04-06T04:48:54;-2.00;35.50
8422;DHT22;4248;48.196;10.924;2023-04-06T04:51:19;-2.00;35.50
8422;DHT22;4248;48.196;10.924;2023-04-06T04:53:45;-1.90;36.50
8422;DHT22;4248;48.196;10.924;2023-04-06T04:56:14;-1.80;35.10
8422;DHT22;4248;48.196;10.924;2023-04-06T04:58:40;-1.70;34.80
8422;DHT22;4248;48.196;10.924;2023-04-06T05:01:07;-1.60;34.60
8422;DHT22;4248;48.196;10.924;2023-04-06T05:03:33;-1.50;34.50
8422;DHT22;4248;48.196;10.924;2023-04-06T05:05:59;-1.40;34.50
8422;DHT22;4248;48.196;10.924;2023-04-06T05:08:25;-1.30;35.10
8422;DHT22;4248;48.196;10.924;2023-04-06T05:10:51;-1.30;34.40
8422;DHT22;4248;48.196;10.924;2023-04-06T05:13:17;-1.20;34.50
8422;DHT22;4248;48.196;10.924;2023-04-06T05:15:42;-1.10;34.50
8422;DHT22;4248;48.196;10.924;2023-04-06T05:18:09;-1.00;34.40
8422;DHT22;4248;48.196;10.924;2023-04-06T05:20:35;-1.00;34.40
8422;DHT22;4248;48.196;10.924;2023-04-06T05:23:01;-1.00;34.50
8422;DHT22;4248;48.196;10.924;2023-04-06T05:25:27;-1.00;34.60
8422;DHT22;4248;48.196;10.924;2023-04-06T05:27:52;-1.00;34.70
8422;DHT22;4248;48.196;10.924;2023-04-06T05:30:18;-0.90;34.40
8422;DHT22;4248;48.196;10.924;2023-04-06T05:32:44;-0.40;34.10
8422;DHT22;4248;48.196;10.924;2023-04-06T05:35:10;0.40;34.40
8422;DHT22;4248;48.196;10.924;2023-04-06T05:37:36;1.30;34.60
8422;DHT22;4248;48.196;10.924;2023-04-06T05:40:02;2.20;34.30
8422;DHT22;4248;48.196;10.924;2023-04-06T05:42:35;3.00;33.30
8422;DHT22;4248;48.196;10.924;2023-04-06T05:45:02;3.70;32.70
8422;DHT22;4248;48.196;10.924;2023-04-06T05:47:27;4.30;32.20
8422;DHT22;4248;48.196;10.924;2023-04-06T05:49:53;4.70;30.50
8422;DHT22;4248;48.196;10.924;2023-04-06T05:52:18;4.50;30.60
8422;DHT22;4248;48.196;10.924;2023-04-06T05:54:44;4.10;30.70
8422;DHT22;4248;48.196;10.924;2023-04-06T05:57:10;3.80;30.90
8422;DHT22;4248;48.196;10.924;2023-04-06T05:59:36;3.50;30.90
8422;DHT22;4248;48.196;10.924;2023-04-06T06:02:01;3.50;30.90
8422;DHT22;4248;48.196;10.924;2023-04-06T06:04:27;3.20;31.10
8422;DHT22;4248;48.196;10.924;2023-04-06T06:06:52;3.00;31.20
8422;DHT22;4248;48.196;10.924;2023-04-06T06:09:18;3.10;30.70
8422;DHT22;4248;48.196;10.924;2023-04-06T06:11:44;3.10;30.50
8422;DHT22;4248;48.196;10.924;2023-04-06T06:14:10;3.00;30.50
8422;DHT22;4248;48.196;10.924;2023-04-06T06:16:35;3.10;30.50
8422;DHT22;4248;48.196;10.924;2023-04-06T06:19:01;3.30;30.50
8422;DHT22;4248;48.196;10.924;2023-04-06T06:21:27;3.60;30.70
8422;DHT22;4248;48.196;10.924;2023-04-06T06:23:53;3.80;30.90
8422;DHT22;4248;48.196;10.924;2023-04-06T06:26:20;4.10;30.40
8422;DHT22;4248;48.196;10.924;2023-04-06T06:28:45;4.70;29.10
8422;DHT22;4248;48.196;10.924;2023-04-06T06:31:11;4.60;28.90
8422;DHT22;4248;48.196;10.924;2023-04-06T06:33:37;4.40;29.30
8422;DHT22;4248;48.196;10.924;2023-04-06T06:36:02;4.40;29.50
8422;DHT22;4248;48.196;10.924;2023-04-06T06:38:28;4.50;29.80
8422;DHT22;4248;48.196;10.924;2023-04-06T06:40:54;4.60;29.70
8422;DHT22;4248;48.196;10.924;2023-04-06T06:43:20;4.70;29.50
8422;DHT22;4248;48.196;10.924;2023-04-06T06:45:45;4.70;29.60
8422;DHT22;4248;48.196;10.924;2023-04-06T06:48:11;4.80;29.70
8422;DHT22;4248;48.196;10.924;2023-04-06T06:50:37;4.90;29.70
8422;DHT22;4248;48.196;10.924;2023-04-06T06:53:03;4.80;29.60
8422;DHT22;4248;48.196;10.924;2023-04-06T06:55:29;4.90;29.60
8422;DHT22;4248;48.196;10.924;2023-04-06T06:57:54;5.10;29.60
8422;DHT22;4248;48.196;10.924;2023-04-06T07:00:20;5.40;29.50
8422;DHT22;4248;48.196;10.924;2023-04-06T07:02:47;5.60;29.50
8422;DHT22;4248;48.196;10.924;2023-04-06T07:05:12;5.80;29.20
8422;DHT22;4248;48.196;10.924;2023-04-06T07:07:38;5.90;29.10
8422;DHT22;4248;48.196;10.924;2023-04-06T07:10:04;6.10;28.90
8422;DHT22;4248;48.196;10.924;2023-04-06T07:12:30;6.30;28.90
8422;DHT22;4248;48.196;10.924;2023-04-06T07:14:56;6.40;28.90
8422;DHT22;4248;48.196;10.924;2023-04-06T07:17:21;6.50;29.00
8422;DHT22;4248;48.196;10.924;2023-04-06T07:19:47;6.70;29.00
8422;DHT22;4248;48.196;10.924;2023-04-06T07:22:13;6.70;29.00
8422;DHT22;4248;48.196;10.924;2023-04-06T07:24:38;6.80;28.90
8422;DHT22;4248;48.196;10.924;2023-04-06T07:27:04;7.00;29.00
8422;DHT22;4248;48.196;10.924;2023-04-06T07:29:30;7.10;29.00
8422;DHT22;4248;48.196;10.924;2023-04-06T07:31:55;7.20;28.80
8422;DHT22;4248;48.196;10.924;2023-04-06T07:34:21;7.40;28.70
8422;DHT22;4248;48.196;10.924;2023-04-06T07:36:47;7.40;28.30
8422;DHT22;4248;48.196;10.924;2023-04-06T07:39:13;7.60;28.20
8422;DHT22;4248;48.196;10.924;2023-04-06T07:41:39;7.70;27.80
8422;DHT22;4248;48.196;10.924;2023-04-06T07:44:05;7.70;27.40
8422;DHT22;4248;48.196;10.924;2023-04-06T07:46:31;7.80;26.70
8422;DHT22;4248;48.196;10.924;2023-04-06T07:48:58;7.80;26.30
8422;DHT22;4248;48.196;10.924;2023-04-06T07:51:24;7.80;25.70
8422;DHT22;4248;48.196;10.924;2023-04-06T07:53:51;7.90;25.50
8422;DHT22;4248;48.196;10.924;2023-04-06T07:56:16;8.10;25.60
8422;DHT22;4248;48.196;10.924;2023-04-06T07:58:42;8.20;25.70
8422;DHT22;4248;48.196;10.924;2023-04-06T08:01:08;8.30;25.70
8422;DHT22;4248;48.196;10.924;2023-04-06T08:03:34;8.50;25.70
8422;DHT22;4248;48.196;10.924;2023-04-06T08:06:00;8.60;25.10
8422;DHT22;4248;48.196;10.924;2023-04-06T08:08:26;8.70;24.40
8422;DHT22;4248;48.196;10.924;2023-04-06T08:10:52;8.70;24.30
8422;DHT22;4248;48.196;10.924;2023-04-06T08:13:17;8.80;24.20
8422;DHT22;4248;48.196;10.924;2023-04-06T08:15:43;8.90;24.00
8422;DHT22;4248;48.196;10.924;2023-04-06T08:18:09;9.00;23.90
8422;DHT22;4248;48.196;10.924;2023-04-06T08:20:35;9.10;23.80
8422;DHT22;4248;48.196;10.924;2023-04-06T08:23:01;9.30;23.50
8422;DHT22;4248;48.196;10.924;2023-04-06T08:25:26;9.10;22.70
8422;DHT22;4248;48.196;10.924;2023-04-06T08:27:52;8.90;22.70
8422;DHT22;4248;48.196;10.924;2023-04-06T08:30:18;8.90;23.00
8422;DHT22;4248;48.196;10.924;2023-04-06T08:32:45;9.10;22.70
8422;DHT22;4248;48.196;10.924;2023-04-06T08:35:11;9.20;21.70
8422;DHT22;4248;48.196;10.924;2023-04-06T08:37:37;9.20;21.40
8422;DHT22;4248;48.196;10.924;2023-04-06T08:40:04;9.30;21.50
8422;DHT22;4248;48.196;10.924;2023-04-06T08:42:32;9.30;21.10
8422;DHT22;4248;48.196;10.924;2023-04-06T08:44:59;9.40;20.50
8422;DHT22;4248;48.196;10.924;2023-04-06T08:47:25;9.30;20.20
8422;DHT22;4248;48.196;10.924;2023-04-06T08:49:52;9.20;20.30
8422;DHT22;4248;48.196;10.924;2023-04-06T08:52:19;9.30;19.90
8422;DHT22;4248;48.196;10.924;2023-04-06T08:54:45;9.40;20.10
8422;DHT22;4248;48.196;10.924;2023-04-06T08:57:11;9.50;19.50
8422;DHT22;4248;48.196;10.924;2023-04-06T08:59:37;9.70;18.50
8422;DHT22;4248;48.196;10.924;2023-04-06T09:02:04;9.80;17.20
8422;DHT22;4248;48.196;10.924;2023-04-06T09:04:33;9.90;17.70
8422;DHT22;4248;48.196;10.924;2023-04-06T09:07:01;10.10;17.30
8422;DHT22;4248;48.196;10.924;2023-04-06T09:09:27;10.00;16.60
8422;DHT22;4248;48.196;10.924;2023-04-06T09:11:53;9.80;17.50
8422;DHT22;4248;48.196;10.924;2023-04-06T09:14:38;10.00;16.60
8422;DHT22;4248;48.196;10.924;2023-04-06T09:17:04;10.20;15.40
8422;DHT22;4248;48.196;10.924;2023-04-06T09:19:30;10.30;15.60
8422;DHT22;4248;48.196;10.924;2023-04-06T09:22:06;10.60;15.80
8422;DHT22;4248;48.196;10.924;2023-04-06T09:25:00;10.60;15.30
8422;DHT22;4248;48.196;10.924;2023-04-06T09:27:34;10.50;15.60
8422;DHT22;4248;48.196;10.924;2023-04-06T09:30:10;10.40;15.70
8422;DHT22;4248;48.196;10.924;2023-04-06T09:32:50;10.60;15.20
8422;DHT22;4248;48.196;10.924;2023-04-06T09:35:17;10.80;14.10
8422;DHT22;4248;48.196;10.924;2023-04-06T09:37:43;10.80;14.30
8422;DHT22;4248;48.196;10.924;2023-04-06T09:40:09;11.00;14.20
8422;DHT22;4248;48.196;10.924;2023-04-06T09:42:35;11.00;13.50
8422;DHT22;4248;48.196;10.924;2023-04-06T09:45:02;11.00;13.30
8422;DHT22;4248;48.196;10.924;2023-04-06T09:47:29;11.00;12.70
8422;DHT22;4248;48.196;10.924;2023-04-06T09:49:59;11.10;13.30
8422;DHT22;4248;48.196;10.924;2023-04-06T09:52:46;11.20;12.50
8422;DHT22;4248;48.196;10.924;2023-04-06T09:55:20;11.30;12.60
8422;DHT22;4248;48.196;10.924;2023-04-06T10:00:22;11.40;12.30
8422;DHT22;4248;48.196;10.924;2023-04-06T10:07:59;11.40;11.30
8422;DHT22;4248;48.196;10.924;2023-04-06T10:10:28;11.40;11.50
8422;DHT22;4248;48.196;10.924;2023-04-06T10:12:54;11.60;11.60
8422;DHT22;4248;48.196;10.924;2023-04-06T10:15:21;11.60;11.60
8422;DHT22;4248;48.196;10.924;2023-04-06T10:17:47;11.70;11.60
8422;DHT22;4248;48.196;10.924;2023-04-06T10:20:36;11.60;11.50
8422;DHT22;4248;48.196;10.924;2023-04-06T10:23:15;11.70;10.90
8422;DHT22;4248;48.196;10.924;2023-04-06T10:25:57;11.70;10.70
8422;DHT22;4248;48.196;10.924;2023-04-06T10:28:24;11.50;11.10
8422;DHT22;4248;48.196;10.924;2023-04-06T10:30:58;11.30;11.80
8422;DHT22;4248;48.196;10.924;2023-04-06T10:33:24;11.20;11.90
8422;DHT22;4248;48.196;10.924;2023-04-06T10:35:49;11.20;11.70
8422;DHT22;4248;48.196;10.924;2023-04-06T10:38:15;11.30;12.10
8422;DHT22;4248;48.196;10.924;2023-04-06T10:40:45;11.50;11.90
8422;DHT22;4248;48.196;10.924;2023-04-06T10:43:19;11.50;11.90
8422;DHT22;4248;48.196;10.924;2023-04-06T10:45:45;11.50;11.80
8422;DHT22;4248;48.196;10.924;2023-04-06T10:48:18;11.40;12.00
8422;DHT22;4248;48.196;10.924;2023-04-06T10:50:49;11.70;12.20
8422;DHT22;4248;48.196;10.924;2023-04-06T10:53:27;12.10;11.90
8422;DHT22;4248;48.196;10.924;2023-04-06T10:55:55;12.40;11.50
8422;DHT22;4248;48.196;10.924;2023-04-06T10:58:25;12.70;11.40
8422;DHT22;4248;48.196;10.924;2023-04-06T11:00:51;12.90;11.10
8422;DHT22;4248;48.196;10.924;2023-04-06T11:03:18;13.00;10.30
8422;DHT22;4248;48.196;10.924;2023-04-06T11:05:48;13.00;10.30
8422;DHT22;4248;48.196;10.924;2023-04-06T11:10:49;13.10;10.00
8422;DHT22;4248;48.196;10.924;2023-04-06T11:13:15;12.70;10.10
8422;DHT22;4248;48.196;10.924;2023-04-06T11:15:40;12.30;10.40
8422;DHT22;4248;48.196;10.924;2023-04-06T11:18:06;11.90;10.70
8422;DHT22;4248;48.196;10.924;2023-04-06T11:20:32;11.40;11.10
8422;DHT22;4248;48.196;10.924;2023-04-06T11:22:57;11.30;12.50
8422;DHT22;4248;48.196;10.924;2023-04-06T11:25:24;11.10;11.30
8422;DHT22;4248;48.196;10.924;2023-04-06T11:27:52;11.10;11.50
8422;DHT22;4248;48.196;10.924;2023-04-06T11:30:18;11.30;11.30
8422;DHT22;4248;48.196;10.924;2023-04-06T11:32:45;11.70;11.10
8422;DHT22;4248;48.196;10.924;2023-04-06T11:35:21;12.10;10.60
8422;DHT22;4248;48.196;10.924;2023-04-06T11:37:51;12.50;10.20
8422;DHT22;4248;48.196;10.924;2023-04-06T11:40:26;12.50;9.20
8422;DHT22;4248;48.196;10.924;2023-04-06T11:42:56;12.50;9.30
8422;DHT22;4248;48.196;10.924;2023-04-06T11:45:22;12.80;9.10
8422;DHT22;4248;48.196;10.924;2023-04-06T11:47:58;13.00;9.10
8422;DHT22;4248;48.196;10.924;2023-04-06T11:50:25;13.30;8.40
8422;DHT22;4248;48.196;10.924;2023-04-06T11:53:01;13.60;8.10
8422;DHT22;4248;48.196;10.924;2023-04-06T11:55:27;13.90;7.70
8422;DHT22;4248;48.196;10.924;2023-04-06T11:57:52;14.10;8.00
8422;DHT22;4248;48.196;10.924;2023-04-06T12:00:19;14.00;7.10
8422;DHT22;4248;48.196;10.924;2023-04-06T12:02:46;14.10;7.90
8422;DHT22;4248;48.196;10.924;2023-04-06T12:05:12;14.20;7.20
8422;DHT22;4248;48.196;10.924;2023-04-06T12:07:37;13.70;6.80
8422;DHT22;4248;48.196;10.924;2023-04-06T12:10:04;13.50;6.20
8422;DHT22;4248;48.196;10.924;2023-04-06T12:12:30;13.30;6.50
8422;DHT22;4248;48.196;10.924;2023-04-06T12:14:56;13.40;7.00
8422;DHT22;4248;48.196;10.924;2023-04-06T12:17:22;13.30;6.70
8422;DHT22;4248;48.196;10.924;2023-04-06T12:19:49;13.50;6.80
8422;DHT22;4248;48.196;10.924;2023-04-06T12:22:15;13.60;7.20
8422;DHT22;4248;48.196;10.924;2023-04-06T12:24:41;13.60;6.80
8422;DHT22;4248;48.196;10.924;2023-04-06T12:27:07;13.60;6.80
8422;DHT22;4248;48.196;10.924;2023-04-06T12:29:34;13.60;6.70
8422;DHT22;4248;48.196;10.924;2023-04-06T12:32:00;13.70;6.90
8422;DHT22;4248;48.196;10.924;2023-04-06T12:34:27;13.70;6.30
8422;DHT22;4248;48.196;10.924;2023-04-06T12:36:52;13.70;5.70
8422;DHT22;4248;48.196;10.924;2023-04-06T12:39:19;13.50;6.10
8422;DHT22;4248;48.196;10.924;2023-04-06T12:41:46;13.60;6.80
8422;DHT22;4248;48.196;10.924;2023-04-06T12:44:11;13.60;6.30
8422;DHT22;4248;48.196;10.924;2023-04-06T12:46:37;13.40;6.30
8422;DHT22;4248;48.196;10.924;2023-04-06T12:49:03;13.10;6.30
8422;DHT22;4248;48.196;10.924;2023-04-06T12:51:30;13.10;6.20
8422;DHT22;4248;48.196;10.924;2023-04-06T12:53:56;12.90;5.00
8422;DHT22;4248;48.196;10.924;2023-04-06T12:56:23;12.80;5.80
8422;DHT22;4248;48.196;10.924;2023-04-06T12:58:51;13.10;5.70
8422;DHT22;4248;48.196;10.924;2023-04-06T13:01:17;13.10;5.30
8422;DHT22;4248;48.196;10.924;2023-04-06T13:03:43;13.30;5.20
8422;DHT22;4248;48.196;10.924;2023-04-06T13:06:11;13.50;5.00
8422;DHT22;4248;48.196;10.924;2023-04-06T13:08:39;13.70;4.60
8422;DHT22;4248;48.196;10.924;2023-04-06T13:11:06;14.00;4.50
8422;DHT22;4248;48.196;10.924;2023-04-06T13:13:36;13.80;3.90
8422;DHT22;4248;48.196;10.924;2023-04-06T13:16:05;13.70;4.30
8422;DHT22;4248;48.196;10.924;2023-04-06T13:18:31;13.40;4.50
8422;DHT22;4248;48.196;10.924;2023-04-06T13:20:58;13.20;4.60
8422;DHT22;4248;48.196;10.924;2023-04-06T13:23:27;13.60;4.60
8422;DHT22;4248;48.196;10.924;2023-04-06T13:25:58;13.60;3.90
8422;DHT22;4248;48.196;10.924;2023-04-06T13:28:25;13.70;4.10
8422;DHT22;4248;48.196;10.924;2023-04-06T13:30:51;13.90;4.00
8422;DHT22;4248;48.196;10.924;2023-04-06T13:33:17;13.50;3.00
8422;DHT22;4248;48.196;10.924;2023-04-06T13:35:46;13.30;3.90
8422;DHT22;4248;48.196;10.924;2023-04-06T13:38:13;13.10;3.50
8422;DHT22;4248;48.196;10.924;2023-04-06T13:40:39;12.90;3.90
8422;DHT22;4248;48.196;10.924;2023-04-06T13:43:06;13.30;4.00
8422;DHT22;4248;48.196;10.924;2023-04-06T13:45:32;13.40;3.80
8422;DHT22;4248;48.196;10.924;2023-04-06T13:47:58;13.40;2.80
8422;DHT22;4248;48.196;10.924;2023-04-06T13:50:27;13.20;2.90
8422;DHT22;4248;48.196;10.924;2023-04-06T13:52:54;13.30;3.30
8422;DHT22;4248;48.196;10.924;2023-04-06T13:55:21;13.30;3.40
8422;DHT22;4248;48.196;10.924;2023-04-06T13:57:47;13.40;3.40
8422;DHT22;4248;48.196;10.924;2023-04-06T14:00:13;13.40;3.40
8422;DHT22;4248;48.196;10.924;2023-04-06T14:02:40;13.20;3.60
8422;DHT22;4248;48.196;10.924;2023-04-06T14:05:06;13.20;3.60
8422;DHT22;4248;48.196;10.924;2023-04-06T14:07:32;13.30;3.80
8422;DHT22;4248;48.196;10.924;2023-04-06T14:09:58;13.40;3.70
8422;DHT22;4248;48.196;10.924;2023-04-06T14:12:24;13.30;2.90
8422;DHT22;4248;48.196;10.924;2023-04-06T14:14:50;13.10;3.60
8422;DHT22;4248;48.196;10.924;2023-04-06T14:17:15;12.80;3.80
8422;DHT22;4248;48.196;10.924;2023-04-06T14:19:42;12.70;3.90
8422;DHT22;4248;48.196;10.924;2023-04-06T14:22:08;12.60;3.90
8422;DHT22;4248;48.196;10.924;2023-04-06T14:24:34;12.70;4.30
8422;DHT22;4248;48.196;10.924;2023-04-06T14:27:01;12.80;4.10
8422;DHT22;4248;48.196;10.924;2023-04-06T14:29:27;12.70;4.10
8422;DHT22;4248;48.196;10.924;2023-04-06T14:31:53;12.80;4.30
8422;DHT22;4248;48.196;10.924;2023-04-06T14:34:25;12.80;3.80
8422;DHT22;4248;48.196;10.924;2023-04-06T14:36:50;12.60;3.00
8422;DHT22;4248;48.196;10.924;2023-04-06T14:39:16;12.50;3.50
8422;DHT22;4248;48.196;10.924;2023-04-06T14:41:42;12.50;3.50
8422;DHT22;4248;48.196;10.924;2023-04-06T14:44:07;12.30;3.60
8422;DHT22;4248;48.196;10.924;2023-04-06T14:46:37;12.10;3.70
8422;DHT22;4248;48.196;10.924;2023-04-06T14:49:03;12.20;3.90
8422;DHT22;4248;48.196;10.924;2023-04-06T14:51:28;12.50;4.10
8422;DHT22;4248;48.196;10.924;2023-04-06T14:53:54;12.70;3.60
8422;DHT22;4248;48.196;10.924;2023-04-06T14:56:23;12.80;3.60
8422;DHT22;4248;48.196;10.924;2023-04-06T14:58:50;13.00;3.40
8422;DHT22;4248;48.196;10.924;2023-04-06T15:01:20;13.00;3.00
8422;DHT22;4248;48.196;10.924;2023-04-06T15:03:46;13.10;3.00
8422;DHT22;4248;48.196;10.924;2023-04-06T15:06:13;13.10;2.80
8422;DHT22;4248;48.196;10.924;2023-04-06T15:08:43;13.00;2.80
8422;DHT22;4248;48.196;10.924;2023-04-06T15:11:09;12.80;2.60
8422;DHT22;4248;48.196;10.924;2023-04-06T15:13:35;12.80;3.00
8422;DHT22;4248;48.196;10.924;2023-04-06T15:16:01;12.80;1.90
8422;DHT22;4248;48.196;10.924;2023-04-06T15:18:26;12.80;2.10
8422;DHT22;4248;48.196;10.924;2023-04-06T15:20:52;12.80;2.20
8422;DHT22;4248;48.196;10.924;2023-04-06T15:23:18;12.80;1.90
8422;DHT22;4248;48.196;10.924;2023-04-06T15:25:43;12.70;2.10
8422;DHT22;4248;48.196;10.924;2023-04-06T15:28:09;12.50;2.80
8422;DHT22;4248;48.196;10.924;2023-04-06T15:30:35;12.30;2.60
8422;DHT22;4248;48.196;10.924;2023-04-06T15:33:01;12.00;3.20
8422;DHT22;4248;48.196;10.924;2023-04-06T15:35:29;11.70;3.30
8422;DHT22;4248;48.196;10.924;2023-04-06T15:37:56;11.60;4.00
8422;DHT22;4248;48.196;10.924;2023-04-06T15:40:23;11.60;4.00
8422;DHT22;4248;48.196;10.924;2023-04-06T15:42:49;11.80;4.20
8422;DHT22;4248;48.196;10.924;2023-04-06T15:45:18;11.90;3.60
8422;DHT22;4248;48.196;10.924;2023-04-06T15:47:44;11.90;3.70
8422;DHT22;4248;48.196;10.924;2023-04-06T15:50:11;12.00;3.30
8422;DHT22;4248;48.196;10.924;2023-04-06T15:52:38;12.00;3.40
8422;DHT22;4248;48.196;10.924;2023-04-06T15:55:06;12.00;3.70
8422;DHT22;4248;48.196;10.924;2023-04-06T15:57:33;12.10;3.70
8422;DHT22;4248;48.196;10.924;2023-04-06T15:59:59;12.00;4.10
8422;DHT22;4248;48.196;10.924;2023-04-06T16:02:26;11.90;3.30